createdAt,value
2023-02-13T00:00:29.069Z,0.99
2023-02-13T00:01:00.816Z,0.99
2023-02-13T00:01:32.679Z,1.00
2023-02-13T00:02:04.372Z,1.00
2023-02-13T00:02:36.073Z,0.98
2023-02-13T00:03:07.781Z,1.00
2023-02-13T00:03:39.488Z,1.03
2023-02-13T00:04:11.506Z,1.01
2023-02-13T00:04:43.437Z,1.06
2023-02-13T00:05:15.252Z,1.05
2023-02-13T00:05:47.160Z,1.03
2023-02-13T00:06:18.812Z,1.05
2023-02-13T00:06:50.555Z,1.01
2023-02-13T00:07:22.213Z,0.99
2023-02-13T00:07:53.861Z,0.98
2023-02-13T00:08:25.532Z,0.97
2023-02-13T00:08:57.201Z,0.98
2023-02-13T00:09:28.850Z,1.00
2023-02-13T00:10:00.524Z,1.00
2023-02-13T00:10:32.218Z,0.98
2023-02-13T00:11:03.937Z,0.92
2023-02-13T00:11:35.598Z,0.93
2023-02-13T00:12:08.410Z,0.91
2023-02-13T00:12:40.377Z,0.86
2023-02-13T00:13:12.067Z,0.86
2023-02-13T00:13:43.754Z,0.82
2023-02-13T00:14:15.437Z,0.80
2023-02-13T00:14:47.054Z,0.79
2023-02-13T00:15:18.940Z,0.80
2023-02-13T00:16:01.541Z,0.79
2023-02-13T00:16:33.679Z,0.75
2023-02-13T00:17:06.486Z,0.67
2023-02-13T00:17:38.180Z,0.67
2023-02-13T00:18:09.950Z,0.67
2023-02-13T00:18:41.589Z,0.65
2023-02-13T00:19:13.307Z,0.65
2023-02-13T00:19:45.063Z,0.66
2023-02-13T00:20:16.769Z,0.63
2023-02-13T00:21:04.943Z,0.66
2023-02-13T00:21:36.649Z,0.68
2023-02-13T00:22:08.699Z,0.64
2023-02-13T00:22:40.390Z,0.66
2023-02-13T00:23:12.006Z,0.64
2023-02-13T00:23:43.674Z,0.63
2023-02-13T00:24:16.324Z,0.66
2023-02-13T00:24:48.082Z,0.66
2023-02-13T00:25:19.823Z,0.66
2023-02-13T00:25:51.524Z,0.60
2023-02-13T00:26:23.275Z,0.51
2023-02-13T00:26:54.937Z,0.51
2023-02-13T00:27:26.560Z,0.46
2023-02-13T00:27:58.234Z,0.45
2023-02-13T00:28:30.000Z,0.46
2023-02-13T00:29:01.681Z,0.45
2023-02-13T00:29:33.313Z,0.43
2023-02-13T00:30:05.668Z,0.38
2023-02-13T00:30:37.369Z,0.40
2023-02-13T00:31:20.434Z,0.41
2023-02-13T00:31:52.341Z,0.37
2023-02-13T00:32:24.308Z,0.33
2023-02-13T00:32:56.023Z,0.32
2023-02-13T00:33:27.715Z,0.36
2023-02-13T00:33:59.377Z,0.38
2023-02-13T00:34:31.044Z,0.38
2023-02-13T00:35:02.908Z,0.35
2023-02-13T00:35:34.568Z,0.35
2023-02-13T00:36:08.266Z,0.26
2023-02-13T00:36:39.983Z,0.25
2023-02-13T00:37:11.710Z,0.25
2023-02-13T00:37:43.386Z,0.23
2023-02-13T00:38:15.027Z,0.22
2023-02-13T00:38:47.766Z,0.24
2023-02-13T00:39:19.486Z,0.19
2023-02-13T00:39:51.151Z,0.19
2023-02-13T00:40:22.810Z,0.17
2023-02-13T00:40:54.462Z,0.15
2023-02-13T00:41:26.280Z,0.17
2023-02-13T00:41:57.945Z,0.13
2023-02-13T00:42:29.674Z,0.14
2023-02-13T00:43:01.377Z,0.17
2023-02-13T00:43:33.542Z,0.15
2023-02-13T00:44:05.199Z,0.14
2023-02-13T00:44:36.861Z,0.11
2023-02-13T00:45:09.033Z,0.10
2023-02-13T00:45:40.754Z,0.08
2023-02-13T00:46:12.567Z,0.05
2023-02-13T00:46:44.333Z,0.08
2023-02-13T00:47:16.147Z,0.09
2023-02-13T00:47:47.835Z,0.08
2023-02-13T00:48:19.563Z,0.04
2023-02-13T00:48:51.651Z,0.06
2023-02-13T00:49:23.336Z,-0.02
2023-02-13T00:49:55.093Z,-0.03
2023-02-13T00:50:26.794Z,-0.02
2023-02-13T00:50:58.892Z,0.00
2023-02-13T00:51:30.796Z,0.02
2023-02-13T00:52:02.492Z,0.02
2023-02-13T00:52:34.147Z,-0.02
2023-02-13T00:53:05.857Z,-0.04
2023-02-13T00:53:38.551Z,-0.05
2023-02-13T00:54:10.241Z,-0.03
2023-02-13T00:54:41.992Z,0.01
2023-02-13T00:55:13.689Z,0.03
2023-02-13T00:55:45.410Z,0.05
2023-02-13T00:56:17.100Z,0.05
2023-02-13T00:56:49.779Z,0.03
2023-02-13T00:57:21.428Z,-0.02
2023-02-13T00:57:53.153Z,-0.04
2023-02-13T00:58:25.221Z,-0.02
2023-02-13T00:58:56.934Z,-0.01
2023-02-13T00:59:28.709Z,-0.07
2023-02-13T01:00:00.377Z,-0.06
2023-02-13T01:00:32.262Z,-0.09
2023-02-13T01:01:04.012Z,-0.09
2023-02-13T01:01:35.693Z,-0.11
2023-02-13T01:02:07.425Z,-0.09
2023-02-13T01:02:39.080Z,-0.08
2023-02-13T01:03:10.824Z,-0.07
2023-02-13T01:03:42.758Z,-0.05
2023-02-13T01:04:14.455Z,-0.05
2023-02-13T01:04:46.104Z,-0.04
2023-02-13T01:05:17.941Z,-0.05
2023-02-13T01:05:49.658Z,-0.06
2023-02-13T01:06:21.367Z,-0.08
2023-02-13T01:06:53.048Z,-0.12
2023-02-13T01:07:24.724Z,-0.10
2023-02-13T01:07:56.500Z,-0.07
2023-02-13T01:08:30.983Z,-0.06
2023-02-13T01:09:04.101Z,-0.09
2023-02-13T01:09:35.858Z,-0.07
2023-02-13T01:10:08.010Z,-0.10
2023-02-13T01:10:41.058Z,-0.11
2023-02-13T01:11:12.801Z,-0.14
2023-02-13T01:11:44.515Z,-0.12
2023-02-13T01:12:16.179Z,-0.12
2023-02-13T01:12:47.838Z,-0.08
2023-02-13T01:13:19.563Z,-0.08
2023-02-13T01:13:51.338Z,-0.08
2023-02-13T01:14:23.114Z,-0.07
2023-02-13T01:14:54.772Z,-0.08
2023-02-13T01:15:26.505Z,-0.09
2023-02-13T01:15:58.407Z,-0.09
2023-02-13T01:16:30.118Z,-0.07
2023-02-13T01:17:01.768Z,-0.10
2023-02-13T01:17:33.415Z,-0.08
2023-02-13T01:18:05.136Z,-0.07
2023-02-13T01:18:37.108Z,-0.08
2023-02-13T01:19:08.780Z,-0.07
2023-02-13T01:19:41.211Z,-0.09
2023-02-13T01:20:14.347Z,-0.10
2023-02-13T01:20:55.676Z,-0.11
2023-02-13T01:21:27.661Z,-0.08
2023-02-13T01:21:59.317Z,-0.15
2023-02-13T01:22:30.987Z,-0.17
2023-02-13T01:23:02.702Z,-0.17
2023-02-13T01:23:37.546Z,-0.14
2023-02-13T01:24:09.181Z,-0.16
2023-02-13T01:24:40.957Z,-0.17
2023-02-13T01:25:12.632Z,-0.17
2023-02-13T01:25:44.491Z,-0.15
2023-02-13T01:26:24.513Z,-0.12
2023-02-13T01:26:56.232Z,-0.12
2023-02-13T01:27:29.007Z,-0.13
2023-02-13T01:28:00.698Z,-0.11
2023-02-13T01:28:32.478Z,-0.15
2023-02-13T01:29:04.283Z,-0.12
2023-02-13T01:29:35.929Z,-0.16
2023-02-13T01:30:13.545Z,-0.14
2023-02-13T01:30:45.227Z,-0.16
2023-02-13T01:31:17.033Z,-0.18
2023-02-13T01:31:48.892Z,-0.21
2023-02-13T01:32:21.424Z,-0.21
2023-02-13T01:32:53.090Z,-0.23
2023-02-13T01:33:27.077Z,-0.26
2023-02-13T01:33:59.740Z,-0.29
2023-02-13T01:34:34.834Z,-0.30
2023-02-13T01:35:07.100Z,-0.38
2023-02-13T01:35:41.819Z,-0.39
2023-02-13T01:36:14.415Z,-0.40
2023-02-13T01:36:46.187Z,-0.40
2023-02-13T01:37:18.000Z,-0.39
2023-02-13T01:37:49.651Z,-0.43
2023-02-13T01:38:21.616Z,-0.42
2023-02-13T01:38:55.753Z,-0.38
2023-02-13T01:39:27.404Z,-0.38
2023-02-13T01:39:59.118Z,-0.43
2023-02-13T01:40:31.892Z,-0.44
2023-02-13T01:41:04.574Z,-0.43
2023-02-13T01:41:36.213Z,-0.43
2023-02-13T01:42:17.464Z,-0.44
2023-02-13T01:42:49.114Z,-0.47
2023-02-13T01:43:24.626Z,-0.49
2023-02-13T01:43:59.778Z,-0.49
2023-02-13T01:44:55.134Z,-0.49
2023-02-13T01:45:30.663Z,-0.53
2023-02-13T01:46:02.966Z,-0.56
2023-02-13T01:46:40.484Z,-0.56
2023-02-13T01:47:15.454Z,-0.55
2023-02-13T01:47:53.142Z,-0.60
2023-02-13T01:48:28.303Z,-0.58
2023-02-13T01:49:13.809Z,-0.59
2023-02-13T01:49:47.461Z,-0.61
2023-02-13T01:50:27.527Z,-0.57
2023-02-13T01:51:08.696Z,-0.54
2023-02-13T01:51:42.022Z,-0.54
2023-02-13T01:52:15.680Z,-0.52
2023-02-13T01:52:59.814Z,-0.56
2023-02-13T01:53:40.523Z,-0.58
2023-02-13T01:54:19.712Z,-0.63
2023-02-13T01:54:51.404Z,-0.61
2023-02-13T01:55:26.112Z,-0.62
2023-02-13T01:56:13.566Z,-0.64
2023-02-13T01:56:52.527Z,-0.67
2023-02-13T01:57:28.812Z,-0.69
2023-02-13T01:58:10.030Z,-0.68
2023-02-13T01:58:46.259Z,-0.68
2023-02-13T01:59:23.624Z,-0.70
2023-02-13T02:00:09.526Z,-0.71
2023-02-13T02:00:43.423Z,-0.71
2023-02-13T02:01:15.133Z,-0.69
2023-02-13T02:01:48.009Z,-0.66
2023-02-13T02:02:22.257Z,-0.68
2023-02-13T02:03:19.245Z,-0.71
2023-02-13T02:04:11.685Z,-0.73
2023-02-13T02:04:45.938Z,-0.71
2023-02-13T02:05:20.545Z,-0.72
2023-02-13T02:05:57.129Z,-0.77
2023-02-13T02:06:34.026Z,-0.80
2023-02-13T02:07:24.528Z,-0.84
2023-02-13T02:08:00.382Z,-0.85
2023-02-13T02:08:33.517Z,-0.87
2023-02-13T02:09:17.066Z,-0.89
2023-02-13T02:09:51.975Z,-0.88
2023-02-13T02:10:24.801Z,-0.85
2023-02-13T02:11:02.647Z,-0.84
2023-02-13T02:11:46.755Z,-0.85
2023-02-13T02:12:26.639Z,-0.90
2023-02-13T02:13:19.609Z,-0.94
2023-02-13T02:13:52.205Z,-0.95
2023-02-13T02:14:23.891Z,-0.97
2023-02-13T02:14:59.065Z,-0.97
2023-02-13T02:15:31.165Z,-0.97
2023-02-13T02:16:02.922Z,-0.97
2023-02-13T02:16:34.703Z,-0.96
2023-02-13T02:17:06.907Z,-0.98
2023-02-13T02:17:38.636Z,-0.95
2023-02-13T02:18:21.838Z,-0.94
2023-02-13T02:18:53.651Z,-0.95
2023-02-13T02:19:47.333Z,-0.94
2023-02-13T02:20:24.922Z,-0.94
2023-02-13T02:21:08.490Z,-0.95
2023-02-13T02:22:01.875Z,-0.97
2023-02-13T02:23:14.658Z,-0.97
2023-02-13T02:24:10.650Z,-1.01
2023-02-13T02:25:03.783Z,-1.04
2023-02-13T02:26:17.626Z,-1.08
2023-02-13T02:27:01.516Z,-1.06
2023-02-13T02:28:03.952Z,-1.08
2023-02-13T02:28:50.634Z,-1.08
2023-02-13T02:29:46.613Z,-1.15
2023-02-13T02:30:18.258Z,-1.14
2023-02-13T02:31:08.390Z,-1.14
2023-02-13T02:31:54.778Z,-1.13
2023-02-13T02:32:54.759Z,-1.10
2023-02-13T02:33:37.372Z,-1.10
2023-02-13T02:34:22.758Z,-1.13
2023-02-13T02:35:27.591Z,-1.09
2023-02-13T02:36:38.277Z,-1.12
2023-02-13T02:37:47.272Z,-1.11
2023-02-13T02:38:45.028Z,-1.15
2023-02-13T02:39:27.158Z,-1.10
2023-02-13T02:40:17.214Z,-1.16
2023-02-13T02:41:10.072Z,-1.16
2023-02-13T02:41:49.099Z,-1.17
2023-02-13T02:42:26.371Z,-1.16
2023-02-13T02:43:08.298Z,-1.17
2023-02-13T02:43:55.378Z,-1.17
2023-02-13T02:44:50.153Z,-1.18
2023-02-13T02:45:27.616Z,-1.19
2023-02-13T02:46:32.429Z,-1.22
2023-02-13T02:47:34.521Z,-1.21
2023-02-13T02:48:39.367Z,-1.22
2023-02-13T02:49:35.426Z,-1.21
2023-02-13T02:50:26.739Z,-1.17
2023-02-13T02:51:15.716Z,-1.15
2023-02-13T02:52:06.902Z,-1.13
2023-02-13T02:52:53.387Z,-1.15
2023-02-13T02:53:57.083Z,-1.22
2023-02-13T02:54:59.027Z,-1.21
2023-02-13T02:55:45.512Z,-1.21
2023-02-13T02:56:31.066Z,-1.20
2023-02-13T02:57:49.497Z,-1.26
2023-02-13T02:58:58.397Z,-1.29
2023-02-13T02:59:51.236Z,-1.29
2023-02-13T03:00:44.620Z,-1.30
2023-02-13T03:01:39.279Z,-1.25
2023-02-13T03:02:30.927Z,-1.21
2023-02-13T03:03:24.785Z,-1.23
2023-02-13T03:04:17.215Z,-1.29
2023-02-13T03:05:11.713Z,-1.34
2023-02-13T03:06:05.837Z,-1.38
2023-02-13T03:06:51.862Z,-1.36
2023-02-13T03:07:23.536Z,-1.37
2023-02-13T03:07:55.176Z,-1.37
2023-02-13T03:08:47.828Z,-1.39
2023-02-13T03:09:47.635Z,-1.43
2023-02-13T03:10:52.637Z,-1.44
2023-02-13T03:11:43.032Z,-1.40
2023-02-13T03:12:39.921Z,-1.42
2023-02-13T03:13:30.276Z,-1.40
2023-02-13T03:14:06.493Z,-1.44
2023-02-13T03:14:38.268Z,-1.43
2023-02-13T03:15:10.501Z,-1.49
2023-02-13T03:16:03.631Z,-1.51
2023-02-13T03:16:53.994Z,-1.54
2023-02-13T03:17:44.235Z,-1.54
2023-02-13T03:18:34.814Z,-1.56
2023-02-13T03:19:36.701Z,-1.55
2023-02-13T03:20:42.039Z,-1.64
2023-02-13T03:21:42.980Z,-1.70
2023-02-13T03:22:36.145Z,-1.67
2023-02-13T03:23:34.117Z,-1.69
2023-02-13T03:24:17.689Z,-1.72
2023-02-13T03:25:12.173Z,-1.67
2023-02-13T03:25:55.970Z,-1.69
2023-02-13T03:26:53.440Z,-1.69
2023-02-13T03:28:24.982Z,-1.71
2023-02-13T03:29:42.896Z,-1.76
2023-02-13T03:30:33.967Z,-1.78
2023-02-13T03:31:24.128Z,-1.83
2023-02-13T03:32:03.395Z,-1.83
2023-02-13T03:32:43.750Z,-1.89
2023-02-13T03:33:34.930Z,-1.87
2023-02-13T03:34:15.621Z,-1.91
2023-02-13T03:35:23.900Z,-1.90
2023-02-13T03:36:18.672Z,-1.89
2023-02-13T03:37:20.103Z,-1.92
2023-02-13T03:38:01.164Z,-1.90
2023-02-13T03:38:46.952Z,-1.88
2023-02-13T03:39:36.167Z,-1.90
2023-02-13T03:40:18.168Z,-1.91
2023-02-13T03:41:15.570Z,-1.92
2023-02-13T03:42:02.864Z,-1.91
2023-02-13T03:42:41.642Z,-1.91
2023-02-13T03:43:17.404Z,-1.90
2023-02-13T03:44:05.057Z,-1.92
2023-02-13T03:44:41.995Z,-1.92
2023-02-13T03:45:40.241Z,-1.91
2023-02-13T03:46:12.691Z,-1.92
2023-02-13T03:46:51.410Z,-1.92
2023-02-13T03:47:23.153Z,-1.91
2023-02-13T03:48:01.220Z,-1.90
2023-02-13T03:48:54.763Z,-1.91
2023-02-13T03:49:59.540Z,-1.91
2023-02-13T03:50:31.314Z,-1.96
2023-02-13T03:51:05.939Z,-1.97
2023-02-13T03:51:46.473Z,-1.99
2023-02-13T03:52:31.488Z,-1.98
2023-02-13T03:53:10.434Z,-1.99
2023-02-13T03:53:46.776Z,-2.02
2023-02-13T03:54:46.436Z,-2.03
2023-02-13T03:55:41.404Z,-2.02
2023-02-13T03:56:35.368Z,-2.06
2023-02-13T03:57:26.674Z,-2.10
2023-02-13T03:58:27.936Z,-2.11
2023-02-13T03:59:18.836Z,-2.12
2023-02-13T03:59:50.920Z,-2.11
2023-02-13T04:00:26.667Z,-2.15
2023-02-13T04:01:02.816Z,-2.17
2023-02-13T04:01:37.925Z,-2.20
2023-02-13T04:02:17.144Z,-2.20
2023-02-13T04:03:22.318Z,-2.20
2023-02-13T04:04:23.157Z,-2.20
2023-02-13T04:05:02.043Z,-2.22
2023-02-13T04:05:41.353Z,-2.20
2023-02-13T04:06:15.233Z,-2.20
2023-02-13T04:06:57.844Z,-2.19
2023-02-13T04:07:29.781Z,-2.19
2023-02-13T04:08:01.517Z,-2.18
2023-02-13T04:08:33.360Z,-2.20
2023-02-13T04:09:05.028Z,-2.25
2023-02-13T04:09:41.880Z,-2.25
2023-02-13T04:10:17.432Z,-2.29
2023-02-13T04:11:34.245Z,-2.29
2023-02-13T04:12:40.788Z,-2.28
2023-02-13T04:13:26.378Z,-2.24
2023-02-13T04:14:01.069Z,-2.19
2023-02-13T04:14:41.375Z,-2.16
2023-02-13T04:15:21.012Z,-2.15
2023-02-13T04:15:59.487Z,-2.13
2023-02-13T04:16:45.093Z,-2.15
2023-02-13T04:17:25.053Z,-2.16
2023-02-13T04:18:18.324Z,-2.14
2023-02-13T04:18:53.216Z,-2.13
2023-02-13T04:19:27.220Z,-2.13
2023-02-13T04:19:59.277Z,-2.10
2023-02-13T04:20:32.892Z,-2.11
2023-02-13T04:21:07.051Z,-2.13
2023-02-13T04:21:40.686Z,-2.12
2023-02-13T04:22:13.033Z,-2.08
2023-02-13T04:22:47.864Z,-2.05
2023-02-13T04:23:20.094Z,-2.02
2023-02-13T04:23:51.736Z,-2.01
2023-02-13T04:24:23.898Z,-2.00
2023-02-13T04:24:55.546Z,-2.01
2023-02-13T04:25:27.218Z,-1.98
2023-02-13T04:26:03.614Z,-1.96
2023-02-13T04:26:43.788Z,-1.95
2023-02-13T04:27:17.456Z,-1.96
2023-02-13T04:27:49.143Z,-2.00
2023-02-13T04:28:20.846Z,-2.00
2023-02-13T04:28:52.561Z,-2.01
2023-02-13T04:29:26.247Z,-2.00
2023-02-13T04:29:57.915Z,-1.98
2023-02-13T04:30:29.972Z,-2.00
2023-02-13T04:31:01.920Z,-2.06
2023-02-13T04:31:33.964Z,-2.06
2023-02-13T04:32:05.673Z,-2.07
2023-02-13T04:32:37.336Z,-2.05
2023-02-13T04:33:09.109Z,-2.04
2023-02-13T04:33:40.849Z,-2.04
2023-02-13T04:34:12.505Z,-2.03
2023-02-13T04:34:44.342Z,-2.07
2023-02-13T04:35:16.409Z,-2.04
2023-02-13T04:35:48.068Z,-2.04
2023-02-13T04:36:19.720Z,-2.10
2023-02-13T04:36:51.379Z,-2.09
2023-02-13T04:37:23.023Z,-2.08
2023-02-13T04:37:54.703Z,-2.07
2023-02-13T04:38:26.305Z,-2.06
2023-02-13T04:38:58.077Z,-2.04
2023-02-13T04:39:29.963Z,-2.03
2023-02-13T04:40:01.685Z,-1.99
2023-02-13T04:40:33.384Z,-1.99
2023-02-13T04:41:05.194Z,-2.02
2023-02-13T04:41:37.194Z,-2.04
2023-02-13T04:42:08.846Z,-2.06
2023-02-13T04:42:40.510Z,-2.08
2023-02-13T04:43:12.258Z,-2.08
2023-02-13T04:43:43.928Z,-2.07
2023-02-13T04:44:18.599Z,-2.08
2023-02-13T04:44:50.311Z,-2.07
2023-02-13T04:45:22.061Z,-2.08
2023-02-13T04:45:53.769Z,-2.06
2023-02-13T04:46:25.658Z,-2.07
2023-02-13T04:46:57.370Z,-2.05
2023-02-13T04:47:29.071Z,-2.07
2023-02-13T04:48:00.733Z,-2.08
2023-02-13T04:48:32.456Z,-2.12
2023-02-13T04:49:04.159Z,-2.14
2023-02-13T04:49:35.824Z,-2.18
2023-02-13T04:50:08.009Z,-2.22
2023-02-13T04:50:39.720Z,-2.24
2023-02-13T04:51:11.373Z,-2.25
2023-02-13T04:51:43.005Z,-2.22
2023-02-13T04:52:15.629Z,-2.23
2023-02-13T04:52:47.598Z,-2.26
2023-02-13T04:53:19.287Z,-2.28
2023-02-13T04:53:50.965Z,-2.27
2023-02-13T04:54:22.633Z,-2.30
2023-02-13T04:54:54.307Z,-2.28
2023-02-13T04:55:28.125Z,-2.28
2023-02-13T04:55:59.794Z,-2.30
2023-02-13T04:56:31.429Z,-2.29
2023-02-13T04:57:03.201Z,-2.27
2023-02-13T04:57:35.034Z,-2.25
2023-02-13T04:58:06.738Z,-2.26
2023-02-13T04:58:38.461Z,-2.21
2023-02-13T04:59:10.094Z,-2.22
2023-02-13T04:59:41.818Z,-2.22
2023-02-13T05:00:13.830Z,-2.19
2023-02-13T05:00:45.501Z,-2.19
2023-02-13T05:01:18.558Z,-2.24
2023-02-13T05:01:50.245Z,-2.18
2023-02-13T05:02:21.871Z,-2.18
2023-02-13T05:02:54.256Z,-2.15
2023-02-13T05:03:25.927Z,-2.15
2023-02-13T05:03:57.644Z,-2.16
2023-02-13T05:04:29.420Z,-2.14
2023-02-13T05:05:01.101Z,-2.16
2023-02-13T05:05:33.225Z,-2.18
2023-02-13T05:06:05.022Z,-2.16
2023-02-13T05:06:38.108Z,-2.19
2023-02-13T05:07:09.800Z,-2.22
2023-02-13T05:07:42.599Z,-2.26
2023-02-13T05:08:14.278Z,-2.28
2023-02-13T05:08:46.026Z,-2.31
2023-02-13T05:09:17.697Z,-2.31
2023-02-13T05:09:49.326Z,-2.31
2023-02-13T05:10:21.080Z,-2.32
2023-02-13T05:10:52.699Z,-2.32
2023-02-13T05:11:24.389Z,-2.33
2023-02-13T05:11:56.061Z,-2.39
2023-02-13T05:12:27.748Z,-2.35
2023-02-13T05:13:00.054Z,-2.37
2023-02-13T05:13:31.896Z,-2.38
2023-02-13T05:14:03.530Z,-2.37
2023-02-13T05:14:35.262Z,-2.39
2023-02-13T05:15:07.230Z,-2.43
2023-02-13T05:15:38.897Z,-2.41
2023-02-13T05:16:10.659Z,-2.38
2023-02-13T05:16:42.320Z,-2.38
2023-02-13T05:17:13.969Z,-2.38
2023-02-13T05:17:46.860Z,-2.38
2023-02-13T05:18:19.658Z,-2.38
2023-02-13T05:18:54.885Z,-2.42
2023-02-13T05:19:26.587Z,-2.39
2023-02-13T05:19:59.238Z,-2.37
2023-02-13T05:20:30.906Z,-2.36
2023-02-13T05:21:21.361Z,-2.34
2023-02-13T05:22:11.866Z,-2.33
2023-02-13T05:23:06.187Z,-2.30
2023-02-13T05:23:37.887Z,-2.30
2023-02-13T05:24:09.530Z,-2.31
2023-02-13T05:24:41.202Z,-2.31
2023-02-13T05:25:12.854Z,-2.31
2023-02-13T05:25:44.488Z,-2.32
2023-02-13T05:26:16.205Z,-2.35
2023-02-13T05:26:47.883Z,-2.42
2023-02-13T05:27:19.638Z,-2.44
2023-02-13T05:27:51.255Z,-2.43
2023-02-13T05:28:41.806Z,-2.43
2023-02-13T05:29:19.439Z,-2.45
2023-02-13T05:29:51.188Z,-2.48
2023-02-13T05:30:22.883Z,-2.48
2023-02-13T05:30:54.594Z,-2.50
2023-02-13T05:31:26.447Z,-2.57
2023-02-13T05:32:00.020Z,-2.61
2023-02-13T05:32:33.122Z,-2.59
2023-02-13T05:33:04.799Z,-2.60
2023-02-13T05:33:36.485Z,-2.61
2023-02-13T05:34:08.176Z,-2.66
2023-02-13T05:34:39.815Z,-2.69
2023-02-13T05:35:11.461Z,-2.67
2023-02-13T05:35:43.126Z,-2.68
2023-02-13T05:36:14.812Z,-2.67
2023-02-13T05:36:46.657Z,-2.70
2023-02-13T05:37:18.414Z,-2.69
2023-02-13T05:37:50.468Z,-2.71
2023-02-13T05:38:22.216Z,-2.70
2023-02-13T05:38:53.949Z,-2.67
2023-02-13T05:39:25.576Z,-2.66
2023-02-13T05:39:57.273Z,-2.66
2023-02-13T05:40:28.924Z,-2.67
2023-02-13T05:41:01.319Z,-2.66
2023-02-13T05:41:33.251Z,-2.65
2023-02-13T05:42:05.111Z,-2.65
2023-02-13T05:42:36.951Z,-2.67
2023-02-13T05:43:08.669Z,-2.68
2023-02-13T05:43:40.380Z,-2.67
2023-02-13T05:44:13.073Z,-2.71
2023-02-13T05:44:44.719Z,-2.70
2023-02-13T05:45:16.367Z,-2.74
2023-02-13T05:45:48.370Z,-2.78
2023-02-13T05:46:20.092Z,-2.78
2023-02-13T05:46:53.301Z,-2.80
2023-02-13T05:47:25.041Z,-2.80
2023-02-13T05:47:56.730Z,-2.79
2023-02-13T05:48:28.393Z,-2.78
2023-02-13T05:49:00.130Z,-2.78
2023-02-13T05:49:31.800Z,-2.80
2023-02-13T05:50:03.627Z,-2.78
2023-02-13T05:50:35.253Z,-2.78
2023-02-13T05:51:06.958Z,-2.79
2023-02-13T05:51:38.664Z,-2.79
2023-02-13T05:52:10.391Z,-2.77
2023-02-13T05:52:42.022Z,-2.78
2023-02-13T05:53:13.697Z,-2.79
2023-02-13T05:53:45.413Z,-2.77
2023-02-13T05:54:17.494Z,-2.81
2023-02-13T05:54:49.171Z,-2.84
2023-02-13T05:55:20.849Z,-2.83
2023-02-13T05:55:52.516Z,-2.81
2023-02-13T05:56:24.261Z,-2.81
2023-02-13T05:56:55.975Z,-2.82
2023-02-13T05:57:27.652Z,-2.83
2023-02-13T05:57:59.377Z,-2.84
2023-02-13T05:58:31.451Z,-2.84
2023-02-13T05:59:03.653Z,-2.82
2023-02-13T05:59:35.355Z,-2.84
2023-02-13T06:00:08.052Z,-2.83
2023-02-13T06:00:39.764Z,-2.84
2023-02-13T06:01:11.521Z,-2.88
2023-02-13T06:01:43.193Z,-2.88
2023-02-13T06:02:14.953Z,-2.88
2023-02-13T06:02:46.686Z,-2.88
2023-02-13T06:03:18.462Z,-2.86
2023-02-13T06:03:50.867Z,-2.86
2023-02-13T06:04:22.642Z,-2.83
2023-02-13T06:04:54.303Z,-2.82
2023-02-13T06:05:25.962Z,-2.80
2023-02-13T06:05:58.325Z,-2.82
2023-02-13T06:06:29.993Z,-2.78
2023-02-13T06:07:02.600Z,-2.78
2023-02-13T06:07:34.301Z,-2.80
2023-02-13T06:08:06.007Z,-2.78
2023-02-13T06:08:37.703Z,-2.82
2023-02-13T06:09:09.402Z,-2.85
2023-02-13T06:09:41.082Z,-2.83
2023-02-13T06:10:12.836Z,-2.82
2023-02-13T06:10:45.261Z,-2.82
2023-02-13T06:11:17.067Z,-2.82
2023-02-13T06:11:48.954Z,-2.82
2023-02-13T06:12:20.601Z,-2.81
2023-02-13T06:12:52.222Z,-2.81
2023-02-13T06:13:24.001Z,-2.80
2023-02-13T06:13:55.626Z,-2.80
2023-02-13T06:14:27.293Z,-2.80
2023-02-13T06:14:59.028Z,-2.77
2023-02-13T06:15:30.673Z,-2.77
2023-02-13T06:16:02.342Z,-2.76
2023-02-13T06:16:34.722Z,-2.72
2023-02-13T06:17:06.397Z,-2.69
2023-02-13T06:17:38.066Z,-2.67
2023-02-13T06:18:10.471Z,-2.71
2023-02-13T06:18:42.156Z,-2.66
2023-02-13T06:19:13.805Z,-2.64
2023-02-13T06:19:45.456Z,-2.62
2023-02-13T06:20:17.142Z,-2.64
2023-02-13T06:20:48.915Z,-2.63
2023-02-13T06:21:21.259Z,-2.68
2023-02-13T06:21:54.131Z,-2.67
2023-02-13T06:22:25.854Z,-2.66
2023-02-13T06:22:57.510Z,-2.67
2023-02-13T06:23:30.018Z,-2.67
2023-02-13T06:24:01.684Z,-2.64
2023-02-13T06:24:33.364Z,-2.65
2023-02-13T06:25:05.500Z,-2.72
2023-02-13T06:25:38.190Z,-2.74
2023-02-13T06:26:10.479Z,-2.69
2023-02-13T06:26:42.155Z,-2.69
2023-02-13T06:27:13.897Z,-2.75
2023-02-13T06:27:45.638Z,-2.75
2023-02-13T06:28:17.402Z,-2.70
2023-02-13T06:28:49.457Z,-2.70
2023-02-13T06:29:21.111Z,-2.70
2023-02-13T06:29:52.854Z,-2.68
2023-02-13T06:30:24.578Z,-2.64
2023-02-13T06:30:56.708Z,-2.64
2023-02-13T06:31:28.822Z,-2.63
2023-02-13T06:32:00.645Z,-2.59
2023-02-13T06:32:33.682Z,-2.59
2023-02-13T06:33:05.450Z,-2.60
2023-02-13T06:33:37.111Z,-2.59
2023-02-13T06:34:08.797Z,-2.59
2023-02-13T06:34:40.479Z,-2.60
2023-02-13T06:35:12.160Z,-2.64
2023-02-13T06:35:43.880Z,-2.62
2023-02-13T06:36:15.599Z,-2.60
2023-02-13T06:36:47.372Z,-2.61
2023-02-13T06:37:19.012Z,-2.39
2023-02-13T06:37:50.740Z,-2.35
2023-02-13T06:38:22.396Z,-2.36
2023-02-13T06:38:54.074Z,-2.41
2023-02-13T06:39:25.730Z,-2.42
2023-02-13T06:39:57.421Z,-2.46
2023-02-13T06:40:29.112Z,-2.45
2023-02-13T06:41:04.554Z,-2.46
2023-02-13T06:41:36.270Z,-2.44
2023-02-13T06:42:07.957Z,-2.42
2023-02-13T06:42:40.074Z,-2.39
2023-02-13T06:43:12.240Z,-2.42
2023-02-13T06:43:44.163Z,-2.38
2023-02-13T06:44:15.812Z,-2.35
2023-02-13T06:44:47.606Z,-2.33
2023-02-13T06:45:19.327Z,-2.31
2023-02-13T06:45:51.891Z,-2.28
2023-02-13T06:46:23.584Z,-2.30
2023-02-13T06:46:55.284Z,-2.29
2023-02-13T06:47:27.013Z,-2.29
2023-02-13T06:47:58.785Z,-2.28
2023-02-13T06:48:30.468Z,-2.27
2023-02-13T06:49:02.278Z,-2.26
2023-02-13T06:49:33.947Z,-2.26
2023-02-13T06:50:06.396Z,-2.22
2023-02-13T06:50:38.141Z,-2.21
2023-02-13T06:51:09.850Z,-2.22
2023-02-13T06:51:41.510Z,-2.25
2023-02-13T06:52:13.254Z,-2.22
2023-02-13T06:52:53.050Z,-2.22
2023-02-13T06:53:25.701Z,-2.18
2023-02-13T06:53:57.406Z,-2.14
2023-02-13T06:54:44.625Z,-2.09
2023-02-13T06:55:18.753Z,-2.05
2023-02-13T06:55:55.476Z,-2.01
2023-02-13T06:56:27.261Z,-1.93
2023-02-13T06:56:58.922Z,-1.90
2023-02-13T06:57:33.141Z,-1.86
2023-02-13T06:58:05.161Z,-1.84
2023-02-13T06:58:38.666Z,-1.79
2023-02-13T06:59:10.377Z,-1.73
2023-02-13T06:59:42.703Z,-1.68
2023-02-13T07:00:17.062Z,-1.65
2023-02-13T07:00:49.778Z,-1.64
2023-02-13T07:01:21.792Z,-1.61
2023-02-13T07:01:53.505Z,-1.55
2023-02-13T07:02:25.257Z,-1.49
2023-02-13T07:03:03.273Z,-1.41
2023-02-13T07:03:35.011Z,-1.35
2023-02-13T07:04:06.663Z,-1.29
2023-02-13T07:04:38.430Z,-1.26
2023-02-13T07:05:11.588Z,-1.20
2023-02-13T07:05:44.531Z,-1.17
2023-02-13T07:06:20.025Z,-1.18
2023-02-13T07:06:54.411Z,-1.11
2023-02-13T07:07:26.214Z,-1.05
2023-02-13T07:07:58.451Z,-0.99
2023-02-13T07:08:30.861Z,-0.94
2023-02-13T07:09:04.743Z,-0.83
2023-02-13T07:09:36.469Z,-0.75
2023-02-13T07:10:10.997Z,-0.68
2023-02-13T07:10:42.774Z,-0.62
2023-02-13T07:11:19.101Z,-0.60
2023-02-13T07:11:51.605Z,-0.57
2023-02-13T07:12:24.187Z,-0.50
2023-02-13T07:13:05.359Z,-0.47
2023-02-13T07:13:37.553Z,-0.47
2023-02-13T07:14:10.137Z,-0.46
2023-02-13T07:14:41.796Z,-0.44
2023-02-13T07:15:13.462Z,-0.40
2023-02-13T07:15:45.362Z,-0.33
2023-02-13T07:16:17.531Z,-0.21
2023-02-13T07:16:49.189Z,-0.13
2023-02-13T07:17:20.817Z,-0.10
2023-02-13T07:17:59.030Z,-0.04
2023-02-13T07:18:30.724Z,-0.06
2023-02-13T07:19:02.518Z,-0.01
2023-02-13T07:19:34.176Z,0.05
2023-02-13T07:20:06.636Z,0.12
2023-02-13T07:20:38.297Z,0.14
2023-02-13T07:21:10.051Z,0.17
2023-02-13T07:21:41.740Z,0.19
2023-02-13T07:22:13.413Z,0.23
2023-02-13T07:22:45.049Z,0.33
2023-02-13T07:23:16.687Z,0.37
2023-02-13T07:23:48.335Z,0.45
2023-02-13T07:24:20.307Z,0.50
2023-02-13T07:24:52.084Z,0.55
2023-02-13T07:25:23.759Z,0.62
2023-02-13T07:25:55.480Z,0.69
2023-02-13T07:26:27.169Z,0.67
2023-02-13T07:26:59.189Z,0.66
2023-02-13T07:27:30.936Z,0.63
2023-02-13T07:28:06.564Z,0.62
2023-02-13T07:28:38.357Z,0.67
2023-02-13T07:29:11.761Z,0.73
2023-02-13T07:29:44.005Z,0.82
2023-02-13T07:30:15.808Z,0.84
2023-02-13T07:30:47.468Z,0.86
2023-02-13T07:31:19.371Z,0.90
2023-02-13T07:31:51.168Z,0.94
2023-02-13T07:32:24.071Z,0.94
2023-02-13T07:33:01.793Z,0.90
2023-02-13T07:33:36.842Z,0.94
2023-02-13T07:34:08.583Z,0.96
2023-02-13T07:34:52.185Z,0.97
2023-02-13T07:35:32.434Z,0.92
2023-02-13T07:36:04.994Z,0.92
2023-02-13T07:36:36.768Z,0.91
2023-02-13T07:37:08.517Z,0.98
2023-02-13T07:37:40.179Z,1.00
2023-02-13T07:38:11.885Z,1.02
2023-02-13T07:38:44.131Z,1.11
2023-02-13T07:39:15.778Z,1.05
2023-02-13T07:39:47.448Z,1.04
2023-02-13T07:40:19.214Z,1.05
2023-02-13T07:40:50.943Z,1.04
2023-02-13T07:41:26.029Z,1.02
2023-02-13T07:41:57.742Z,1.03
2023-02-13T07:42:29.483Z,1.04
2023-02-13T07:43:02.039Z,1.06
2023-02-13T07:43:33.712Z,1.06
2023-02-13T07:44:05.568Z,1.08
2023-02-13T07:44:37.197Z,1.10
2023-02-13T07:45:09.480Z,1.11
2023-02-13T07:45:41.120Z,1.47
2023-02-13T07:46:12.809Z,1.37
2023-02-13T07:46:44.549Z,1.37